sensor_id;sensor_type;location;lat;lon;timestamp;temperature;humidity
65995;HTU21D;52764;51.036;5.852;2023-01-01T00:01:45;17.52;50.30
65995;HTU21D;52764;51.036;5.852;2023-01-01T00:04:13;17.50;50.37
65995;HTU21D;52764;51.036;5.852;2023-01-01T00:06:39;17.39;51.47
65995;HTU21D;52764;51.036;5.852;2023-01-01T00:09:05;17.30;50.46
65995;HTU21D;52764;51.036;5.852;2023-01-01T00:11:49;17.21;50.69
65995;HTU21D;52764;51.036;5.852;2023-01-01T00:14:15;-10.47;50.82
65995;HTU21D;52764;51.036;5.852;2023-01-01T00:16:41;17.10;50.69
65995;HTU21D;52764;51.036;5.852;2023-01-01T00:19:07;17.07;50.75
65995;HTU21D;52764;51.036;5.852;2023-01-01T00:21:32;17.03;50.88
65995;HTU21D;52764;51.036;5.852;2023-01-01T00:23:58;16.99;50.88
65995;HTU21D;52764;51.036;5.852;2023-01-01T00:26:24;16.94;50.70
65995;HTU21D;52764;51.036;5.852;2023-01-01T00:28:50;14.84;50.69
65995;HTU21D;52764;51.036;5.852;2023-01-01T00:31:18;16.94;44.85
65995;HTU21D;52764;51.036;5.852;2023-01-01T00:33:48;16.96;50.39
65995;HTU21D;52764;51.036;5.852;2023-01-01T00:36:15;16.99;50.15
65995;HTU21D;52764;51.036;5.852;2023-01-01T00:38:43;16.99;49.97
65995;HTU21D;52764;51.036;5.852;2023-01-01T00:41:11;17.01;50.14
65995;HTU21D;52764;51.036;5.852;2023-01-01T00:43:37;17.01;49.79
65995;HTU21D;52764;51.036;5.852;2023-01-01T00:46:04;16.93;49.49
65995;HTU21D;52764;51.036;5.852;2023-01-01T00:48:31;17.54;49.45
65995;HTU21D;52764;51.036;5.852;2023-01-01T00:50:56;16.91;42.70
65995;HTU21D;52764;51.036;5.852;2023-01-01T00:53:22;-7.17;49.37
65995;HTU21D;52764;51.036;5.852;2023-01-01T00:55:50;16.92;49.50
65995;HTU21D;52764;51.036;5.852;2023-01-01T00:58:18;16.94;49.47
65995;HTU21D;52764;51.036;5.852;2023-01-01T01:00:44;16.91;49.22
65995;HTU21D;52764;51.036;5.852;2023-01-01T01:03:14;16.93;49.34
65995;HTU21D;52764;51.036;5.852;2023-01-01T01:08:29;14.82;48.98
65995;HTU21D;52764;51.036;5.852;2023-01-01T01:11:18;16.88;48.99
65995;HTU21D;52764;51.036;5.852;2023-01-01T01:13:46;17.39;48.90
65995;HTU21D;52764;51.036;5.852;2023-01-01T01:16:15;16.79;48.91
65995;HTU21D;52764;51.036;5.852;2023-01-01T01:18:43;16.78;49.16
65995;HTU21D;52764;51.036;5.852;2023-01-01T01:21:09;16.69;49.47
65995;HTU21D;52764;51.036;5.852;2023-01-01T01:23:36;16.74;49.44
65995;HTU21D;52764;51.036;5.852;2023-01-01T01:26:09;16.70;49.06
65995;HTU21D;52764;51.036;5.852;2023-01-01T01:28:36;16.67;49.40
65995;HTU21D;52764;51.036;5.852;2023-01-01T01:31:02;16.70;50.24
65995;HTU21D;52764;51.036;5.852;2023-01-01T01:33:28;16.73;49.39
65995;HTU21D;52764;51.036;5.852;2023-01-01T01:35:54;16.75;49.22
65995;HTU21D;52764;51.036;5.852;2023-01-01T01:38:20;16.79;49.06
65995;HTU21D;52764;51.036;5.852;2023-01-01T01:40:45;16.84;49.05
65995;HTU21D;52764;51.036;5.852;2023-01-01T01:43:22;16.87;48.91
65995;HTU21D;52764;51.036;5.852;2023-01-01T01:45:54;16.88;48.85
65995;HTU21D;52764;51.036;5.852;2023-01-01T01:48:23;16.88;48.87
65995;HTU21D;52764;51.036;5.852;2023-01-01T01:50:50;16.89;49.06
65995;HTU21D;52764;51.036;5.852;2023-01-01T01:53:29;16.81;49.16
65995;HTU21D;52764;51.036;5.852;2023-01-01T01:55:59;16.81;49.59
65995;HTU21D;52764;51.036;5.852;2023-01-01T01:58:28;14.56;42.38
65995;HTU21D;52764;51.036;5.852;2023-01-01T02:00:55;16.81;49.55
65995;HTU21D;52764;51.036;5.852;2023-01-01T02:06:28;16.80;49.58
65995;HTU21D;52764;51.036;5.852;2023-01-01T02:08:56;16.82;49.40
65995;HTU21D;52764;51.036;5.852;2023-01-01T02:11:22;16.84;49.47
65995;HTU21D;52764;51.036;5.852;2023-01-01T02:13:49;16.84;49.53
65995;HTU21D;52764;51.036;5.852;2023-01-01T02:24:17;16.89;49.80
65995;HTU21D;52764;51.036;5.852;2023-01-01T02:29:21;16.88;49.79
65995;HTU21D;52764;51.036;5.852;2023-01-01T02:32:00;16.88;49.89
65995;HTU21D;52764;51.036;5.852;2023-01-01T02:34:34;16.93;49.90
65995;HTU21D;52764;51.036;5.852;2023-01-01T02:37:04;17.59;51.12
65995;HTU21D;52764;51.036;5.852;2023-01-01T02:39:34;16.94;49.97
65995;HTU21D;52764;51.036;5.852;2023-01-01T02:42:05;16.93;49.88
65995;HTU21D;52764;51.036;5.852;2023-01-01T02:44:38;16.92;50.10
65995;HTU21D;52764;51.036;5.852;2023-01-01T02:47:11;16.89;50.12
65995;HTU21D;52764;51.036;5.852;2023-01-01T02:49:44;16.84;50.30
65995;HTU21D;52764;51.036;5.852;2023-01-01T02:55:06;16.74;50.96
65995;HTU21D;52764;51.036;5.852;2023-01-01T02:57:49;16.71;51.01
65995;HTU21D;52764;51.036;5.852;2023-01-01T03:00:19;16.69;51.32
65995;HTU21D;52764;51.036;5.852;2023-01-01T03:11:14;16.94;52.62
65995;HTU21D;52764;51.036;5.852;2023-01-01T03:19:27;16.57;52.55
65995;HTU21D;52764;51.036;5.852;2023-01-01T03:22:09;16.59;52.59
65995;HTU21D;52764;51.036;5.852;2023-01-01T03:24:57;16.62;52.69
65995;HTU21D;52764;51.036;5.852;2023-01-01T03:27:30;16.64;52.86
65995;HTU21D;52764;51.036;5.852;2023-01-01T03:30:02;16.70;52.69
65995;HTU21D;52764;51.036;5.852;2023-01-01T03:32:39;16.75;52.54
65995;HTU21D;52764;51.036;5.852;2023-01-01T03:35:27;16.76;52.59
65995;HTU21D;52764;51.036;5.852;2023-01-01T03:37:58;16.77;52.68
65995;HTU21D;52764;51.036;5.852;2023-01-01T03:40:27;16.78;52.82
65995;HTU21D;52764;51.036;5.852;2023-01-01T03:43:47;16.78;53.12
65995;HTU21D;52764;51.036;5.852;2023-01-01T03:45:55;14.48;53.15
65995;HTU21D;52764;51.036;5.852;2023-01-01T03:48:21;16.74;53.35
65995;HTU21D;52764;51.036;5.852;2023-01-01T03:51:07;16.70;53.32
65995;HTU21D;52764;51.036;5.852;2023-01-01T03:53:39;16.63;53.72
65995;HTU21D;52764;51.036;5.852;2023-01-01T03:56:38;16.60;53.91
65995;HTU21D;52764;51.036;5.852;2023-01-01T04:01:36;16.58;53.96
65995;HTU21D;52764;51.036;5.852;2023-01-01T04:04:04;16.59;54.07
65995;HTU21D;52764;51.036;5.852;2023-01-01T04:06:34;16.59;53.98
65995;HTU21D;52764;51.036;5.852;2023-01-01T04:09:02;16.61;53.99
65995;HTU21D;52764;51.036;5.852;2023-01-01T04:11:31;16.61;54.03
65995;HTU21D;52764;51.036;5.852;2023-01-01T04:14:31;16.61;54.12
65995;HTU21D;52764;51.036;5.852;2023-01-01T04:16:58;16.61;54.20
65995;HTU21D;52764;51.036;5.852;2023-01-01T04:19:24;16.59;54.21
65995;HTU21D;52764;51.036;5.852;2023-01-01T04:21:50;16.56;54.19
65995;HTU21D;52764;51.036;5.852;2023-01-01T04:24:16;16.55;54.32
65995;HTU21D;52764;51.036;5.852;2023-01-01T04:26:42;16.48;54.50
65995;HTU21D;52764;51.036;5.852;2023-01-01T04:29:08;16.47;54.50
65995;HTU21D;52764;51.036;5.852;2023-01-01T04:31:34;16.50;54.65
65995;HTU21D;52764;51.036;5.852;2023-01-01T04:34:00;16.47;54.70
65995;HTU21D;52764;51.036;5.852;2023-01-01T04:36:26;16.45;54.74
65995;HTU21D;52764;51.036;5.852;2023-01-01T04:38:52;16.44;54.75
65995;HTU21D;52764;51.036;5.852;2023-01-01T04:41:18;-8.24;54.82
65995;HTU21D;52764;51.036;5.852;2023-01-01T04:43:48;16.32;55.04
65995;HTU21D;52764;51.036;5.852;2023-01-01T04:46:16;16.25;55.21
65995;HTU21D;52764;51.036;5.852;2023-01-01T04:48:42;16.24;55.33
65995;HTU21D;52764;51.036;5.852;2023-01-01T04:51:10;16.21;55.47
65995;HTU21D;52764;51.036;5.852;2023-01-01T04:53:37;16.24;55.55
65995;HTU21D;52764;51.036;5.852;2023-01-01T04:56:09;16.21;55.81
65995;HTU21D;52764;51.036;5.852;2023-01-01T04:58:38;16.20;55.87
65995;HTU21D;52764;51.036;5.852;2023-01-01T05:01:05;16.19;55.91
65995;HTU21D;52764;51.036;5.852;2023-01-01T05:03:31;16.20;56.15
65995;HTU21D;52764;51.036;5.852;2023-01-01T05:06:09;16.22;56.15
65995;HTU21D;52764;51.036;5.852;2023-01-01T05:08:37;16.22;56.08
65995;HTU21D;52764;51.036;5.852;2023-01-01T05:11:09;16.21;56.24
65995;HTU21D;52764;51.036;5.852;2023-01-01T05:13:37;16.24;56.30
65995;HTU21D;52764;51.036;5.852;2023-01-01T05:16:05;16.20;56.50
65995;HTU21D;52764;51.036;5.852;2023-01-01T05:18:31;-8.45;56.26
65995;HTU21D;52764;51.036;5.852;2023-01-01T05:21:06;16.29;56.32
65995;HTU21D;52764;51.036;5.852;2023-01-01T05:23:32;16.34;55.97
65995;HTU21D;52764;51.036;5.852;2023-01-01T05:25:57;16.37;56.10
65995;HTU21D;52764;51.036;5.852;2023-01-01T05:28:24;16.36;56.10
65995;HTU21D;52764;51.036;5.852;2023-01-01T05:30:51;16.37;56.26
65995;HTU21D;52764;51.036;5.852;2023-01-01T05:33:17;16.40;56.36
65995;HTU21D;52764;51.036;5.852;2023-01-01T05:35:43;16.36;56.31
65995;HTU21D;52764;51.036;5.852;2023-01-01T05:38:09;16.40;56.34
65995;HTU21D;52764;51.036;5.852;2023-01-01T05:40:38;16.45;56.27
65995;HTU21D;52764;51.036;5.852;2023-01-01T05:43:05;16.44;56.35
65995;HTU21D;52764;51.036;5.852;2023-01-01T05:45:31;16.45;56.40
65995;HTU21D;52764;51.036;5.852;2023-01-01T05:47:57;16.46;56.39
65995;HTU21D;52764;51.036;5.852;2023-01-01T05:50:22;16.47;56.34
65995;HTU21D;52764;51.036;5.852;2023-01-01T05:52:48;13.90;56.35
65995;HTU21D;52764;51.036;5.852;2023-01-01T05:55:14;16.45;56.64
65995;HTU21D;52764;51.036;5.852;2023-01-01T05:57:40;16.43;56.78
65995;HTU21D;52764;51.036;5.852;2023-01-01T06:00:06;16.45;56.89
65995;HTU21D;52764;51.036;5.852;2023-01-01T06:02:32;16.44;56.87
65995;HTU21D;52764;51.036;5.852;2023-01-01T06:04:58;16.46;56.89
65995;HTU21D;52764;51.036;5.852;2023-01-01T06:07:23;16.45;56.98
65995;HTU21D;52764;51.036;5.852;2023-01-01T06:09:49;16.43;57.19
65995;HTU21D;52764;51.036;5.852;2023-01-01T06:12:15;16.43;57.23
65995;HTU21D;52764;51.036;5.852;2023-01-01T06:14:40;16.43;57.19
65995;HTU21D;52764;51.036;5.852;2023-01-01T06:17:06;16.43;57.31
65995;HTU21D;52764;51.036;5.852;2023-01-01T06:19:32;16.36;57.34
65995;HTU21D;52764;51.036;5.852;2023-01-01T06:21:57;16.42;57.44
65995;HTU21D;52764;51.036;5.852;2023-01-01T06:24:23;16.41;57.49
65995;HTU21D;52764;51.036;5.852;2023-01-01T06:26:49;16.44;58.36
65995;HTU21D;52764;51.036;5.852;2023-01-01T06:29:14;16.40;57.55
65995;HTU21D;52764;51.036;5.852;2023-01-01T06:31:40;16.41;57.43
65995;HTU21D;52764;51.036;5.852;2023-01-01T06:34:06;16.41;57.84
65995;HTU21D;52764;51.036;5.852;2023-01-01T06:36:32;16.37;58.03
65995;HTU21D;52764;51.036;5.852;2023-01-01T06:38:58;16.33;59.54
65995;HTU21D;52764;51.036;5.852;2023-01-01T06:41:26;16.32;58.44
65995;HTU21D;52764;51.036;5.852;2023-01-01T06:43:54;16.31;58.64
65995;HTU21D;52764;51.036;5.852;2023-01-01T06:46:25;16.32;58.93
65995;HTU21D;52764;51.036;5.852;2023-01-01T06:48:57;16.31;59.18
65995;HTU21D;52764;51.036;5.852;2023-01-01T06:51:28;16.30;59.51
65995;HTU21D;52764;51.036;5.852;2023-01-01T06:53:58;16.26;63.30
65995;HTU21D;52764;51.036;5.852;2023-01-01T06:56:25;16.22;60.11
65995;HTU21D;52764;51.036;5.852;2023-01-01T06:58:50;16.21;60.61
65995;HTU21D;52764;51.036;5.852;2023-01-01T07:01:17;16.17;61.09
65995;HTU21D;52764;51.036;5.852;2023-01-01T07:03:52;16.07;61.67
65995;HTU21D;52764;51.036;5.852;2023-01-01T07:06:19;16.04;62.34
65995;HTU21D;52764;51.036;5.852;2023-01-01T07:08:45;16.01;62.93
65995;HTU21D;52764;51.036;5.852;2023-01-01T07:11:10;15.99;63.42
65995;HTU21D;52764;51.036;5.852;2023-01-01T07:13:36;16.00;63.44
65995;HTU21D;52764;51.036;5.852;2023-01-01T07:16:02;15.92;63.79
65995;HTU21D;52764;51.036;5.852;2023-01-01T07:18:28;15.88;64.18
65995;HTU21D;52764;51.036;5.852;2023-01-01T07:20:56;15.84;64.37
65995;HTU21D;52764;51.036;5.852;2023-01-01T07:23:23;15.77;64.53
65995;HTU21D;52764;51.036;5.852;2023-01-01T07:25:51;15.74;64.61
65995;HTU21D;52764;51.036;5.852;2023-01-01T07:28:18;12.50;64.66
65995;HTU21D;52764;51.036;5.852;2023-01-01T07:30:45;15.76;65.22
65995;HTU21D;52764;51.036;5.852;2023-01-01T07:33:13;15.80;64.69
65995;HTU21D;52764;51.036;5.852;2023-01-01T07:35:40;15.83;64.62
65995;HTU21D;52764;51.036;5.852;2023-01-01T07:38:06;15.83;64.59
65995;HTU21D;52764;51.036;5.852;2023-01-01T07:40:33;15.40;64.51
65995;HTU21D;52764;51.036;5.852;2023-01-01T07:42:59;15.82;64.70
65995;HTU21D;52764;51.036;5.852;2023-01-01T07:45:24;15.82;64.72
65995;HTU21D;52764;51.036;5.852;2023-01-01T07:47:56;15.78;64.81
65995;HTU21D;52764;51.036;5.852;2023-01-01T07:50:25;15.77;64.73
65995;HTU21D;52764;51.036;5.852;2023-01-01T07:52:51;15.78;64.69
65995;HTU21D;52764;51.036;5.852;2023-01-01T07:55:18;15.82;64.46
65995;HTU21D;52764;51.036;5.852;2023-01-01T07:57:45;15.78;72.33
65995;HTU21D;52764;51.036;5.852;2023-01-01T08:00:13;15.82;64.38
65995;HTU21D;52764;51.036;5.852;2023-01-01T08:02:42;15.83;64.47
65995;HTU21D;52764;51.036;5.852;2023-01-01T08:05:08;15.85;64.31
65995;HTU21D;52764;51.036;5.852;2023-01-01T08:07:35;15.85;64.26
65995;HTU21D;52764;51.036;5.852;2023-01-01T08:10:01;15.63;64.34
65995;HTU21D;52764;51.036;5.852;2023-01-01T08:12:27;15.84;64.26
65995;HTU21D;52764;51.036;5.852;2023-01-01T08:14:52;15.85;64.34
65995;HTU21D;52764;51.036;5.852;2023-01-01T08:17:18;15.88;64.29
65995;HTU21D;52764;51.036;5.852;2023-01-01T08:19:44;15.86;64.40
65995;HTU21D;52764;51.036;5.852;2023-01-01T08:22:11;15.89;64.34
65995;HTU21D;52764;51.036;5.852;2023-01-01T08:24:37;15.90;64.18
65995;HTU21D;52764;51.036;5.852;2023-01-01T08:27:03;15.93;64.07
65995;HTU21D;52764;51.036;5.852;2023-01-01T08:29:28;15.96;64.03
65995;HTU21D;52764;51.036;5.852;2023-01-01T08:31:54;15.95;64.15
65995;HTU21D;52764;51.036;5.852;2023-01-01T08:34:20;15.96;64.11
65995;HTU21D;52764;51.036;5.852;2023-01-01T08:36:45;15.98;64.18
65995;HTU21D;52764;51.036;5.852;2023-01-01T08:39:11;15.91;64.29
65995;HTU21D;52764;51.036;5.852;2023-01-01T08:41:37;15.91;64.27
65995;HTU21D;52764;51.036;5.852;2023-01-01T08:44:03;15.92;72.07
65995;HTU21D;52764;51.036;5.852;2023-01-01T08:46:28;15.88;64.20
65995;HTU21D;52764;51.036;5.852;2023-01-01T08:48:54;15.86;64.32
65995;HTU21D;52764;51.036;5.852;2023-01-01T08:51:20;15.85;64.57
65995;HTU21D;52764;51.036;5.852;2023-01-01T08:53:45;15.84;64.64
65995;HTU21D;52764;51.036;5.852;2023-01-01T08:56:12;15.86;64.62
65995;HTU21D;52764;51.036;5.852;2023-01-01T08:58:40;15.86;64.53
65995;HTU21D;52764;51.036;5.852;2023-01-01T09:01:07;15.85;64.68
65995;HTU21D;52764;51.036;5.852;2023-01-01T09:03:34;12.70;64.81
65995;HTU21D;52764;51.036;5.852;2023-01-01T09:06:00;15.89;64.85
65995;HTU21D;52764;51.036;5.852;2023-01-01T09:08:26;15.92;64.85
65995;HTU21D;52764;51.036;5.852;2023-01-01T09:10:57;15.88;64.92
65995;HTU21D;52764;51.036;5.852;2023-01-01T09:13:24;15.92;64.76
65995;HTU21D;52764;51.036;5.852;2023-01-01T09:15:49;15.95;64.77
65995;HTU21D;52764;51.036;5.852;2023-01-01T09:18:15;15.99;64.57
65995;HTU21D;52764;51.036;5.852;2023-01-01T09:20:41;16.02;64.54
65995;HTU21D;52764;51.036;5.852;2023-01-01T09:23:08;16.03;64.54
65995;HTU21D;52764;51.036;5.852;2023-01-01T09:25:34;16.08;64.44
65995;HTU21D;52764;51.036;5.852;2023-01-01T09:28:11;16.07;64.52
65995;HTU21D;52764;51.036;5.852;2023-01-01T09:30:37;16.13;64.44
65995;HTU21D;52764;51.036;5.852;2023-01-01T09:33:03;16.16;64.34
65995;HTU21D;52764;51.036;5.852;2023-01-01T09:35:30;16.22;64.18
65995;HTU21D;52764;51.036;5.852;2023-01-01T09:37:56;13.55;63.88
65995;HTU21D;52764;51.036;5.852;2023-01-01T09:43:43;16.30;63.42
65995;HTU21D;52764;51.036;5.852;2023-01-01T09:46:10;16.28;63.54
65995;HTU21D;52764;51.036;5.852;2023-01-01T09:48:55;16.31;63.53
65995;HTU21D;52764;51.036;5.852;2023-01-01T09:51:26;16.35;63.21
65995;HTU21D;52764;51.036;5.852;2023-01-01T09:54:27;16.45;63.26
65995;HTU21D;52764;51.036;5.852;2023-01-01T09:56:55;16.39;63.21
65995;HTU21D;52764;51.036;5.852;2023-01-01T09:59:21;16.47;63.22
65995;HTU21D;52764;51.036;5.852;2023-01-01T10:15:08;16.67;62.41
65995;HTU21D;52764;51.036;5.852;2023-01-01T10:17:48;16.71;62.31
65995;HTU21D;52764;51.036;5.852;2023-01-01T10:20:25;16.73;62.14
65995;HTU21D;52764;51.036;5.852;2023-01-01T10:22:58;17.41;61.99
65995;HTU21D;52764;51.036;5.852;2023-01-01T10:25:30;16.76;62.02
65995;HTU21D;52764;51.036;5.852;2023-01-01T10:28:02;16.77;62.08
65995;HTU21D;52764;51.036;5.852;2023-01-01T10:30:29;16.75;61.95
65995;HTU21D;52764;51.036;5.852;2023-01-01T10:32:56;16.71;61.96
65995;HTU21D;52764;51.036;5.852;2023-01-01T10:35:29;16.71;62.10
65995;HTU21D;52764;51.036;5.852;2023-01-01T10:37:58;16.77;62.12
65995;HTU21D;52764;51.036;5.852;2023-01-01T10:40:26;16.79;62.00
65995;HTU21D;52764;51.036;5.852;2023-01-01T10:42:58;16.81;61.85
65995;HTU21D;52764;51.036;5.852;2023-01-01T10:45:44;16.77;61.84
65995;HTU21D;52764;51.036;5.852;2023-01-01T10:53:35;16.66;62.15
65995;HTU21D;52764;51.036;5.852;2023-01-01T10:56:11;16.71;62.11
65995;HTU21D;52764;51.036;5.852;2023-01-01T11:09:06;16.96;61.61
65995;HTU21D;52764;51.036;5.852;2023-01-01T11:11:46;16.96;61.76
65995;HTU21D;52764;51.036;5.852;2023-01-01T11:14:29;16.99;61.64
65995;HTU21D;52764;51.036;5.852;2023-01-01T11:16:58;17.07;61.46
65995;HTU21D;52764;51.036;5.852;2023-01-01T11:19:30;17.11;61.10
65995;HTU21D;52764;51.036;5.852;2023-01-01T11:21:59;17.08;61.07
65995;HTU21D;52764;51.036;5.852;2023-01-01T11:24:30;17.13;61.21
65995;HTU21D;52764;51.036;5.852;2023-01-01T11:27:16;17.18;61.09
65995;HTU21D;52764;51.036;5.852;2023-01-01T11:29:42;17.21;60.93
65995;HTU21D;52764;51.036;5.852;2023-01-01T11:32:16;17.30;64.49
65995;HTU21D;52764;51.036;5.852;2023-01-01T11:34:55;17.33;60.57
65995;HTU21D;52764;51.036;5.852;2023-01-01T11:37:36;17.11;60.35
65995;HTU21D;52764;51.036;5.852;2023-01-01T11:40:05;17.39;60.43
65995;HTU21D;52764;51.036;5.852;2023-01-01T11:42:45;17.43;60.16
65995;HTU21D;52764;51.036;5.852;2023-01-01T11:47:44;17.45;59.86
65995;HTU21D;52764;51.036;5.852;2023-01-01T11:52:52;17.47;59.90
65995;HTU21D;52764;51.036;5.852;2023-01-01T11:58:01;17.38;60.02
65995;HTU21D;52764;51.036;5.852;2023-01-01T12:00:33;17.35;59.90
65995;HTU21D;52764;51.036;5.852;2023-01-01T12:03:14;17.22;59.88
65995;HTU21D;52764;51.036;5.852;2023-01-01T12:06:00;17.24;59.88
65995;HTU21D;52764;51.036;5.852;2023-01-01T12:14:05;17.18;59.77
65995;HTU21D;52764;51.036;5.852;2023-01-01T12:17:02;17.11;59.61
65995;HTU21D;52764;51.036;5.852;2023-01-01T12:19:47;17.03;59.84
65995;HTU21D;52764;51.036;5.852;2023-01-01T12:22:17;17.02;59.94
65995;HTU21D;52764;51.036;5.852;2023-01-01T12:24:46;17.02;60.05
65995;HTU21D;52764;51.036;5.852;2023-01-01T12:55:10;16.96;59.02
65995;HTU21D;52764;51.036;5.852;2023-01-01T12:57:42;16.95;59.69
65995;HTU21D;52764;51.036;5.852;2023-01-01T13:00:15;16.30;59.71
65995;HTU21D;52764;51.036;5.852;2023-01-01T13:02:52;16.98;59.67
65995;HTU21D;52764;51.036;5.852;2023-01-01T13:05:32;17.65;59.64
65995;HTU21D;52764;51.036;5.852;2023-01-01T13:08:02;16.96;59.48
65995;HTU21D;52764;51.036;5.852;2023-01-01T13:13:01;16.98;59.69
65995;HTU21D;52764;51.036;5.852;2023-01-01T13:20:43;17.13;59.19
65995;HTU21D;52764;51.036;5.852;2023-01-01T13:31:17;17.14;59.25
65995;HTU21D;52764;51.036;5.852;2023-01-01T13:33:43;17.15;59.03
65995;HTU21D;52764;51.036;5.852;2023-01-01T13:41:43;16.95;59.74
65995;HTU21D;52764;51.036;5.852;2023-01-01T13:44:15;16.89;59.83
65995;HTU21D;52764;51.036;5.852;2023-01-01T13:46:55;16.86;59.90
65995;HTU21D;52764;51.036;5.852;2023-01-01T13:49:35;16.84;60.20
65995;HTU21D;52764;51.036;5.852;2023-01-01T13:52:45;16.86;60.30
65995;HTU21D;52764;51.036;5.852;2023-01-01T13:55:34;16.84;60.38
65995;HTU21D;52764;51.036;5.852;2023-01-01T13:58:30;16.80;60.35
65995;HTU21D;52764;51.036;5.852;2023-01-01T14:03:53;16.89;60.44
65995;HTU21D;52764;51.036;5.852;2023-01-01T14:06:49;16.89;60.37
65995;HTU21D;52764;51.036;5.852;2023-01-01T14:09:18;16.91;60.45
65995;HTU21D;52764;51.036;5.852;2023-01-01T14:11:45;16.92;60.32
65995;HTU21D;52764;51.036;5.852;2023-01-01T14:16:56;16.90;60.44
65995;HTU21D;52764;51.036;5.852;2023-01-01T14:19:23;16.90;60.52
65995;HTU21D;52764;51.036;5.852;2023-01-01T14:21:51;16.90;60.41
65995;HTU21D;52764;51.036;5.852;2023-01-01T14:24:20;16.90;60.40
65995;HTU21D;52764;51.036;5.852;2023-01-01T14:26:47;16.89;60.30
65995;HTU21D;52764;51.036;5.852;2023-01-01T14:29:34;16.90;60.41
65995;HTU21D;52764;51.036;5.852;2023-01-01T14:32:17;16.90;56.52
65995;HTU21D;52764;51.036;5.852;2023-01-01T14:34:45;16.92;60.41
65995;HTU21D;52764;51.036;5.852;2023-01-01T14:37:22;16.93;60.38
65995;HTU21D;52764;51.036;5.852;2023-01-01T14:40:05;16.92;60.26
65995;HTU21D;52764;51.036;5.852;2023-01-01T14:42:33;16.90;60.50
65995;HTU21D;52764;51.036;5.852;2023-01-01T14:45:00;16.88;60.63
65995;HTU21D;52764;51.036;5.852;2023-01-01T14:47:33;16.86;60.95
65995;HTU21D;52764;51.036;5.852;2023-01-01T14:50:14;16.78;61.10
65995;HTU21D;52764;51.036;5.852;2023-01-01T14:52:43;16.73;61.63
65995;HTU21D;52764;51.036;5.852;2023-01-01T14:55:17;16.66;61.82
65995;HTU21D;52764;51.036;5.852;2023-01-01T14:57:50;16.64;62.40
65995;HTU21D;52764;51.036;5.852;2023-01-01T15:00:26;16.65;62.55
65995;HTU21D;52764;51.036;5.852;2023-01-01T15:02:53;16.64;62.90
65995;HTU21D;52764;51.036;5.852;2023-01-01T15:07:59;16.61;69.80
65995;HTU21D;52764;51.036;5.852;2023-01-01T15:10:27;16.58;63.15
65995;HTU21D;52764;51.036;5.852;2023-01-01T15:12:55;16.54;69.78
65995;HTU21D;52764;51.036;5.852;2023-01-01T15:18:03;16.48;63.47
65995;HTU21D;52764;51.036;5.852;2023-01-01T15:20:29;16.43;63.62
65995;HTU21D;52764;51.036;5.852;2023-01-01T15:22:55;16.36;63.92
65995;HTU21D;52764;51.036;5.852;2023-01-01T15:25:21;16.32;64.24
65995;HTU21D;52764;51.036;5.852;2023-01-01T15:27:50;16.25;64.71
65995;HTU21D;52764;51.036;5.852;2023-01-01T15:32:48;16.16;65.30
65995;HTU21D;52764;51.036;5.852;2023-01-01T15:35:31;16.10;65.57
65995;HTU21D;52764;51.036;5.852;2023-01-01T15:38:07;16.08;66.09
65995;HTU21D;52764;51.036;5.852;2023-01-01T15:40:35;16.08;66.29
65995;HTU21D;52764;51.036;5.852;2023-01-01T15:45:40;16.04;66.87
65995;HTU21D;52764;51.036;5.852;2023-01-01T15:48:19;16.03;66.97
65995;HTU21D;52764;51.036;5.852;2023-01-01T15:53:22;16.00;67.48
65995;HTU21D;52764;51.036;5.852;2023-01-01T15:56:02;15.91;67.53
65995;HTU21D;52764;51.036;5.852;2023-01-01T15:58:41;15.69;67.98
65995;HTU21D;52764;51.036;5.852;2023-01-01T16:01:13;15.59;68.34
65995;HTU21D;52764;51.036;5.852;2023-01-01T16:03:41;15.60;68.82
65995;HTU21D;52764;51.036;5.852;2023-01-01T16:06:14;15.56;69.02
65995;HTU21D;52764;51.036;5.852;2023-01-01T16:08:40;15.57;69.43
65995;HTU21D;52764;51.036;5.852;2023-01-01T16:11:06;15.51;69.71
65995;HTU21D;52764;51.036;5.852;2023-01-01T16:13:32;15.46;70.08
65995;HTU21D;52764;51.036;5.852;2023-01-01T16:16:00;15.38;70.26
65995;HTU21D;52764;51.036;5.852;2023-01-01T16:18:36;15.30;71.19
65995;HTU21D;52764;51.036;5.852;2023-01-01T16:21:04;15.10;71.51
65995;HTU21D;52764;51.036;5.852;2023-01-01T16:23:30;14.99;72.30
65995;HTU21D;52764;51.036;5.852;2023-01-01T16:25:56;14.88;72.69
65995;HTU21D;52764;51.036;5.852;2023-01-01T16:28:22;14.87;72.89
65995;HTU21D;52764;51.036;5.852;2023-01-01T16:30:48;14.84;73.08
65995;HTU21D;52764;51.036;5.852;2023-01-01T16:33:17;14.85;73.29
65995;HTU21D;52764;51.036;5.852;2023-01-01T16:35:43;14.77;73.53
65995;HTU21D;52764;51.036;5.852;2023-01-01T16:38:10;14.75;73.78
65995;HTU21D;52764;51.036;5.852;2023-01-01T16:40:36;14.79;73.86
65995;HTU21D;52764;51.036;5.852;2023-01-01T16:43:03;14.82;73.79
65995;HTU21D;52764;51.036;5.852;2023-01-01T16:45:30;14.81;73.70
65995;HTU21D;52764;51.036;5.852;2023-01-01T16:47:56;14.82;75.47
65995;HTU21D;52764;51.036;5.852;2023-01-01T16:50:22;14.75;73.78
65995;HTU21D;52764;51.036;5.852;2023-01-01T16:52:47;14.81;73.77
65995;HTU21D;52764;51.036;5.852;2023-01-01T16:55:13;15.93;73.99
65995;HTU21D;52764;51.036;5.852;2023-01-01T16:57:39;14.72;60.96
65995;HTU21D;52764;51.036;5.852;2023-01-01T17:00:06;14.63;74.88
65995;HTU21D;52764;51.036;5.852;2023-01-01T17:02:33;-20.59;75.13
65995;HTU21D;52764;51.036;5.852;2023-01-01T17:04:59;14.64;75.42
65995;HTU21D;52764;51.036;5.852;2023-01-01T17:07:25;14.33;75.37
65995;HTU21D;52764;51.036;5.852;2023-01-01T17:09:51;14.67;75.65
65995;HTU21D;52764;51.036;5.852;2023-01-01T17:12:16;14.68;75.44
65995;HTU21D;52764;51.036;5.852;2023-01-01T17:14:42;14.69;75.58
65995;HTU21D;52764;51.036;5.852;2023-01-01T17:17:08;14.68;75.74
65995;HTU21D;52764;51.036;5.852;2023-01-01T17:19:34;14.59;76.06
65995;HTU21D;52764;51.036;5.852;2023-01-01T17:21:59;14.52;73.00
65995;HTU21D;52764;51.036;5.852;2023-01-01T17:24:25;-12.17;77.09
65995;HTU21D;52764;51.036;5.852;2023-01-01T17:26:53;14.38;77.48
65995;HTU21D;52764;51.036;5.852;2023-01-01T17:29:20;14.35;77.72
65995;HTU21D;52764;51.036;5.852;2023-01-01T17:31:46;14.36;77.76
65995;HTU21D;52764;51.036;5.852;2023-01-01T17:34:12;14.34;77.77
65995;HTU21D;52764;51.036;5.852;2023-01-01T17:36:39;14.29;78.03
65995;HTU21D;52764;51.036;5.852;2023-01-01T17:39:05;14.33;78.21
65995;HTU21D;52764;51.036;5.852;2023-01-01T17:41:31;14.36;78.18
65995;HTU21D;52764;51.036;5.852;2023-01-01T17:43:57;14.43;78.10
65995;HTU21D;52764;51.036;5.852;2023-01-01T17:46:26;14.51;77.95
65995;HTU21D;52764;51.036;5.852;2023-01-01T17:48:59;14.54;77.82
65995;HTU21D;52764;51.036;5.852;2023-01-01T17:51:26;14.56;76.74
65995;HTU21D;52764;51.036;5.852;2023-01-01T17:53:54;15.44;68.29
65995;HTU21D;52764;51.036;5.852;2023-01-01T17:56:21;14.47;78.01
65995;HTU21D;52764;51.036;5.852;2023-01-01T17:58:49;14.44;78.03
65995;HTU21D;52764;51.036;5.852;2023-01-01T18:03:50;9.67;78.53